Time;durP1;ratioP1;P1;durP2;ratioP2;P2;SDS_P1;SDS_P2;PMS_P1;PMS_P2;Temp;Humidity;BMP_temperature;BMP_pressure;BME280_temperature;BME280_humidity;BME280_pressure;Samples;Min_cycle;Max_cycle;Signal;HPM_P1;HPM_P2
2022/08/28 00:01:01;;;;;;;11.07;6.43;;;;;;;14.79;100.00;101623.25;5050472;23;20477;-41
2022/08/28 00:03:29;;;;;;;12.63;6.83;;;;;;;14.76;100.00;101627.19;5011353;28;20433;-39
2022/08/28 00:05:58;;;;;;;26.20;7.00;;;;;;;14.75;100.00;101630.09;5014193;28;20437;-40
2022/08/28 00:08:26;;;;;;;21.03;7.70;;;;;;;14.75;100.00;101632.78;5014224;28;20429;-41
2022/08/28 00:10:54;;;;;;;17.70;8.00;;;;;;;14.74;100.00;101633.78;5013515;28;20450;-42
2022/08/28 00:13:24;;;;;;;17.17;8.00;;;;;;;14.69;100.00;101629.03;4999756;28;20499;-41
2022/08/28 00:15:56;;;;;;;14.47;6.63;;;;;;;14.72;100.00;101630.50;4998137;28;20442;-41
2022/08/28 00:18:25;;;;;;;15.80;6.83;;;;;;;14.73;100.00;101629.44;5007352;28;20429;-41
2022/08/28 00:20:53;;;;;;;17.03;6.77;;;;;;;14.73;100.00;101634.81;5004659;28;20466;-41
2022/08/28 00:23:24;;;;;;;20.80;7.30;;;;;;;14.68;100.00;101632.75;4995311;28;20922;-41
2022/08/28 00:25:54;;;;;;;19.00;7.40;;;;;;;14.65;100.00;101627.78;5003948;28;20442;-42
2022/08/28 00:28:21;;;;;;;16.30;7.50;;;;;;;14.66;100.00;101624.06;5010451;28;20444;-40
2022/08/28 00:30:53;;;;;;;13.83;7.40;;;;;;;14.63;100.00;101629.84;5008265;28;20465;-40
2022/08/28 00:33:24;;;;;;;23.63;7.20;;;;;;;14.61;100.00;101631.88;5010502;28;20895;-39
2022/08/28 00:35:51;;;;;;;14.33;6.73;;;;;;;14.63;100.00;101631.69;5000820;28;20464;-40
2022/08/28 00:38:21;;;;;;;14.80;7.07;;;;;;;14.60;100.00;101632.94;5011784;28;20433;-39
2022/08/28 00:40:53;;;;;;;13.23;6.17;;;;;;;14.63;100.00;101626.34;5010547;28;20461;-40
2022/08/28 00:43:32;;;;;;;14.70;6.37;;;;;;;14.58;100.00;101626.91;5004564;28;20876;-40
2022/08/28 00:46:00;;;;;;;15.97;6.60;;;;;;;14.56;100.00;101630.84;5007093;28;20448;-41
2022/08/28 00:48:28;;;;;;;12.33;5.83;;;;;;;14.51;100.00;101631.47;5000791;28;20425;-41
2022/08/28 00:53:42;;;;;;;11.50;5.90;;;;;;;14.50;100.00;101628.97;5008276;28;20484;-40
2022/08/28 00:56:13;;;;;;;21.07;7.33;;;;;;;14.44;100.00;101617.16;5002342;28;20433;-44
2022/08/28 00:58:43;;;;;;;20.00;7.57;;;;;;;14.46;100.00;101623.16;4997787;28;20429;-42
2022/08/28 01:01:12;;;;;;;19.07;8.43;;;;;;;14.46;100.00;101622.31;4995543;28;20468;-40
2022/08/28 01:03:40;;;;;;;18.93;7.20;;;;;;;14.39;100.00;101625.81;5011688;28;20460;-42
2022/08/28 01:06:08;;;;;;;21.93;7.83;;;;;;;14.40;100.00;101622.09;4996391;28;20461;-39
2022/08/28 01:08:40;;;;;;;11.27;6.10;;;;;;;14.34;100.00;101624.75;4997226;28;20426;-42
2022/08/28 01:11:09;;;;;;;12.30;6.60;;;;;;;14.32;100.00;101624.97;4999044;28;20451;-42
2022/08/28 01:13:41;;;;;;;12.43;7.20;;;;;;;14.33;100.00;101620.44;4993786;28;20474;-43
2022/08/28 01:16:09;;;;;;;12.43;6.50;;;;;;;14.27;100.00;101619.34;4998146;28;20440;-42
2022/08/28 01:18:38;;;;;;;15.50;7.30;;;;;;;14.27;100.00;101622.03;5009469;28;20460;-42
2022/08/28 01:21:12;;;;;;;13.33;6.70;;;;;;;14.24;100.00;101621.59;4985140;28;20461;-41
2022/08/28 01:23:53;;;;;;;19.40;7.00;;;;;;;14.18;100.00;101617.88;4979121;28;20453;-42
2022/08/28 01:26:21;;;;;;;11.47;6.43;;;;;;;14.17;100.00;101626.09;4968269;28;20431;-44
2022/08/28 01:28:51;;;;;;;18.00;7.20;;;;;;;14.16;100.00;101633.31;4978369;28;20437;-43
2022/08/28 01:31:19;;;;;;;17.80;6.90;;;;;;;14.14;100.00;101630.00;4982720;28;20451;-41
2022/08/28 01:33:48;;;;;;;16.90;6.70;;;;;;;14.11;100.00;101633.09;4974182;28;20481;-42
2022/08/28 01:36:16;;;;;;;10.40;6.67;;;;;;;14.11;100.00;101632.25;4977836;28;20438;-40
2022/08/28 01:38:48;;;;;;;17.27;6.70;;;;;;;14.12;100.00;101633.91;4991464;28;20442;-43
2022/08/28 01:41:17;;;;;;;12.53;6.47;;;;;;;14.12;100.00;101636.59;4986351;28;20446;-42
2022/08/28 01:43:44;;;;;;;13.20;6.63;;;;;;;14.16;100.00;101635.16;4992048;28;20434;-41
2022/08/28 01:46:12;;;;;;;15.23;7.87;;;;;;;14.13;100.00;101639.06;4977916;28;20445;-42
2022/08/28 01:48:44;;;;;;;15.43;7.37;;;;;;;14.11;100.00;101635.75;4974321;28;20473;-41
2022/08/28 01:51:13;;;;;;;11.60;7.50;;;;;;;14.06;100.00;101635.53;4979384;28;20454;-42
2022/08/28 01:53:41;;;;;;;13.43;6.50;;;;;;;14.05;100.00;101638.41;4988379;28;20803;-40
2022/08/28 01:56:15;;;;;;;15.73;7.07;;;;;;;14.03;100.00;101635.94;4978889;28;20466;-41
2022/08/28 01:58:46;;;;;;;11.93;6.70;;;;;;;14.09;100.00;101631.63;4980135;28;20439;-42
2022/08/28 02:01:17;;;;;;;14.53;7.30;;;;;;;14.08;100.00;101628.13;4975115;28;20459;-41
2022/08/28 02:03:45;;;;;;;16.00;7.37;;;;;;;14.01;100.00;101626.44;4986941;28;20450;-43
2022/08/28 02:06:13;;;;;;;15.60;7.57;;;;;;;13.99;100.00;101629.28;4983179;28;20518;-40
2022/08/28 02:08:41;;;;;;;18.70;7.47;;;;;;;13.98;100.00;101629.50;4980453;28;20426;-43
2022/08/28 02:11:09;;;;;;;17.33;7.00;;;;;;;13.95;100.00;101635.25;4974736;28;20465;-40
2022/08/28 02:13:38;;;;;;;14.20;6.73;;;;;;;13.92;100.00;101632.97;4974789;28;20435;-43
2022/08/28 02:16:09;;;;;;;10.40;5.93;;;;;;;13.87;100.00;101625.50;4983384;28;20867;-42
2022/08/28 02:18:37;;;;;;;16.57;7.53;;;;;;;13.85;100.00;101636.44;4990111;28;20517;-41
2022/08/28 02:21:07;;;;;;;18.67;6.90;;;;;;;13.87;100.00;101638.91;5009357;28;20456;-41
2022/08/28 02:23:36;;;;;;;22.77;7.37;;;;;;;13.88;100.00;101637.06;4992824;28;20438;-43
2022/08/28 02:26:04;;;;;;;14.57;8.00;;;;;;;13.89;100.00;101636.06;4997792;28;20442;-43
2022/08/28 02:28:32;;;;;;;17.53;6.83;;;;;;;13.87;100.00;101638.91;5007489;28;20437;-41
2022/08/28 02:31:00;;;;;;;12.63;6.87;;;;;;;13.86;100.00;101639.94;5008062;28;20567;-43
2022/08/28 02:33:29;;;;;;;13.40;6.50;;;;;;;13.82;100.00;101639.50;5002792;28;20804;-40
2022/08/28 02:35:57;;;;;;;19.07;7.57;;;;;;;13.84;100.00;101634.78;4997851;28;20479;-41
2022/08/28 02:38:25;;;;;;;16.37;6.67;;;;;;;13.85;100.00;101635.59;5005499;28;20461;-40
2022/08/28 02:40:53;;;;;;;24.00;6.80;;;;;;;13.85;100.00;101633.75;4995257;28;20466;-40
2022/08/28 02:43:20;;;;;;;15.17;6.17;;;;;;;13.84;100.00;101633.94;4995866;28;20832;-39
2022/08/28 02:45:48;;;;;;;16.90;5.80;;;;;;;13.77;100.00;101639.25;5008364;28;20772;-41
2022/08/28 02:48:16;;;;;;;10.50;6.20;;;;;;;13.75;100.00;101640.47;5010966;28;20490;-40
2022/08/28 02:50:45;;;;;;;16.67;6.80;;;;;;;13.72;100.00;101632.81;4993659;28;20470;-40
2022/08/28 02:53:14;;;;;;;11.43;5.90;;;;;;;13.66;100.00;101636.28;5006956;28;20772;-39
2022/08/28 02:55:41;;;;;;;16.77;6.77;;;;;;;13.64;100.00;101635.66;4999973;28;20478;-40
2022/08/28 02:58:09;;;;;;;9.33;5.30;;;;;;;13.59;100.00;101624.72;5005444;28;20437;-42
2022/08/28 03:00:36;;;;;;;16.23;6.50;;;;;;;13.54;100.00;101614.56;5008588;28;20469;-41
2022/08/28 03:03:04;;;;;;;11.63;6.23;;;;;;;13.49;100.00;101622.34;4998641;28;20430;-43
2022/08/28 03:05:32;;;;;;;9.20;6.03;;;;;;;13.45;100.00;101636.31;5006711;28;20440;-39
2022/08/28 03:08:01;;;;;;;11.53;6.10;;;;;;;13.42;100.00;101637.53;5002913;28;20440;-41
2022/08/28 03:10:28;;;;;;;7.67;6.20;;;;;;;13.40;100.00;101628.88;5001423;28;20457;-41
2022/08/28 03:12:56;;;;;;;14.93;6.97;;;;;;;13.37;100.00;101636.47;5000281;28;20437;-40
2022/08/28 03:15:23;;;;;;;7.73;6.40;;;;;;;13.35;100.00;101631.28;4995218;28;20833;-41
2022/08/28 03:17:51;;;;;;;10.00;5.93;;;;;;;13.31;100.00;101632.72;4996747;28;20952;-41
2022/08/28 03:20:19;;;;;;;15.80;6.80;;;;;;;13.29;100.00;101632.88;5000459;28;21013;-41
2022/08/28 03:25:33;;;;;;;8.97;5.83;;;;;;;13.23;100.00;101630.97;5010135;28;20434;-40
2022/08/28 03:28:01;;;;;;;12.13;6.87;;;;;;;13.20;100.00;101619.84;5009283;28;20451;-40
2022/08/28 03:30:29;;;;;;;11.23;7.07;;;;;;;13.19;100.00;101619.00;5006979;28;20472;-40
2022/08/28 03:32:56;;;;;;;10.70;6.93;;;;;;;13.18;100.00;101621.88;5006982;28;20442;-41
2022/08/28 03:35:24;;;;;;;13.43;6.67;;;;;;;13.15;100.00;101616.91;5001909;28;20477;-39
2022/08/28 03:37:52;;;;;;;13.13;6.30;;;;;;;13.14;100.00;101620.63;5003696;28;20958;-42
2022/08/28 03:40:20;;;;;;;12.27;6.67;;;;;;;13.13;100.00;101613.59;5000359;28;20464;-41
2022/08/28 03:42:49;;;;;;;13.57;6.00;;;;;;;13.09;100.00;101617.66;5003751;28;20434;-41
2022/08/28 03:45:21;;;;;;;9.50;6.10;;;;;;;13.07;100.00;101617.00;4996991;28;20437;-41
2022/08/28 03:47:48;;;;;;;15.27;6.73;;;;;;;13.06;100.00;101612.66;5004829;28;20434;-41
2022/08/28 03:50:18;;;;;;;12.93;6.47;;;;;;;13.02;100.00;101617.56;5008393;28;20515;-40
2022/08/28 03:52:46;;;;;;;12.60;5.17;;;;;;;13.04;100.00;101617.38;5008835;28;20433;-40
2022/08/28 03:55:14;;;;;;;15.23;6.67;;;;;;;13.02;100.00;101616.75;5007736;28;20476;-41
2022/08/28 03:57:41;;;;;;;11.73;6.10;;;;;;;12.99;100.00;101617.94;5004021;28;20433;-41
2022/08/28 04:00:13;;;;;;;9.30;5.77;;;;;;;13.00;100.00;101624.13;5004864;28;20473;-40
2022/08/28 04:02:40;;;;;;;8.97;5.80;;;;;;;12.98;100.00;101624.34;5007197;28;20977;-40
2022/08/28 04:05:09;;;;;;;11.13;6.77;;;;;;;12.96;100.00;101620.19;5004588;28;20434;-45
2022/08/28 04:07:38;;;;;;;11.20;6.37;;;;;;;12.97;100.00;101619.16;5000847;28;20441;-39
2022/08/28 04:10:06;;;;;;;19.53;6.57;;;;;;;12.97;100.00;101629.88;4998251;28;20553;-43
2022/08/28 04:12:35;;;;;;;14.50;6.47;;;;;;;12.98;100.00;101615.47;5007237;28;20978;-42
2022/08/28 04:15:04;;;;;;;14.20;6.07;;;;;;;12.99;100.00;101619.81;4998641;28;20474;-41
2022/08/28 04:17:37;;;;;;;15.80;7.43;;;;;;;12.99;100.00;101625.97;4998154;28;20438;-43
2022/08/28 04:20:06;;;;;;;17.10;7.23;;;;;;;12.99;100.00;101623.28;4999348;28;20454;-43
2022/08/28 04:22:34;;;;;;;13.30;6.73;;;;;;;12.99;100.00;101622.50;4999452;28;20468;-41
2022/08/28 04:25:01;;;;;;;21.57;7.83;;;;;;;13.01;100.00;101620.44;5004571;28;20449;-39
2022/08/28 04:27:29;;;;;;;8.03;6.83;;;;;;;13.02;100.00;101622.91;5005787;28;20433;-41
2022/08/28 04:29:56;;;;;;;10.43;6.60;;;;;;;13.04;100.00;101628.94;5002543;28;20472;-40
2022/08/28 04:32:24;;;;;;;13.83;7.10;;;;;;;13.06;100.00;101618.00;4998874;28;20453;-42
2022/08/28 04:34:53;;;;;;;16.63;7.47;;;;;;;13.08;100.00;101616.03;4995943;28;20434;-41
2022/08/28 04:37:21;;;;;;;13.93;7.20;;;;;;;13.10;100.00;101612.13;5002836;28;20446;-40
2022/08/28 04:39:54;;;;;;;14.23;7.20;;;;;;;13.15;100.00;101608.84;4991378;28;20473;-39
2022/08/28 04:42:22;;;;;;;11.70;7.07;;;;;;;13.19;100.00;101615.50;5001280;28;20451;-40
2022/08/28 04:44:50;;;;;;;13.00;6.50;;;;;;;13.26;100.00;101611.84;5007183;28;20487;-43
2022/08/28 04:47:17;;;;;;;14.87;7.63;;;;;;;13.30;100.00;101607.78;4996415;28;20791;-42
2022/08/28 04:49:45;;;;;;;12.30;6.53;;;;;;;13.39;100.00;101611.13;4999676;28;20462;-42
2022/08/28 04:52:14;;;;;;;14.03;7.50;;;;;;;13.51;100.00;101614.09;5005529;28;20453;-41
2022/08/28 04:54:41;;;;;;;12.13;6.80;;;;;;;13.59;100.00;101617.47;5000387;28;20446;-43
2022/08/28 04:57:09;;;;;;;8.70;6.53;;;;;;;13.66;100.00;101618.34;4997481;28;20504;-42
2022/08/28 04:59:37;;;;;;;13.57;6.90;;;;;;;13.69;100.00;101617.97;4995335;28;20458;-42
2022/08/28 05:02:05;;;;;;;10.97;7.13;;;;;;;13.83;100.00;101626.91;5001785;28;20827;-40
2022/08/28 05:04:33;;;;;;;10.87;6.60;;;;;;;13.99;100.00;101625.78;5000310;28;20504;-40
2022/08/28 05:07:00;;;;;;;8.30;6.10;;;;;;;14.32;100.00;101630.34;4992947;28;20430;-40
2022/08/28 05:09:30;;;;;;;9.57;5.50;;;;;;;15.08;100.00;101630.16;4998036;28;20458;-44
2022/08/28 05:12:02;;;;;;;13.70;7.13;;;;;;;15.78;100.00;101632.25;5001535;28;20453;-41
2022/08/28 05:14:30;;;;;;;11.90;5.70;;;;;;;16.46;100.00;101628.13;5008337;28;20437;-42
2022/08/28 05:16:58;;;;;;;12.70;6.60;;;;;;;16.99;100.00;101623.34;4993766;28;20485;-42
2022/08/28 05:19:27;;;;;;;7.33;6.50;;;;;;;16.96;99.99;101629.16;4993590;28;20458;-43
2022/08/28 05:21:55;;;;;;;12.60;6.57;;;;;;;17.61;96.13;101630.56;4991380;28;20477;-43
2022/08/28 05:24:23;;;;;;;12.07;6.10;;;;;;;18.38;95.48;101634.50;4992688;28;20499;-40
2022/08/28 05:26:52;;;;;;;8.67;5.90;;;;;;;18.91;83.15;101621.97;4992725;28;20426;-43
2022/08/28 05:29:19;;;;;;;14.20;6.33;;;;;;;19.59;83.85;101621.56;4992322;28;20548;-41
2022/08/28 05:31:50;;;;;;;8.67;5.47;;;;;;;20.08;79.89;101629.19;4993427;28;20495;-41
2022/08/28 05:34:19;;;;;;;8.60;6.10;;;;;;;20.64;77.16;101630.38;4992468;28;20531;-42
2022/08/28 05:36:47;;;;;;;11.23;6.23;;;;;;;21.04;68.08;101630.31;4992903;28;20866;-43
2022/08/28 05:39:17;;;;;;;9.70;6.00;;;;;;;21.29;63.98;101636.22;4992187;28;21012;-41
2022/08/28 05:41:46;;;;;;;8.00;5.90;;;;;;;21.96;69.41;101632.41;4992474;28;20499;-43
2022/08/28 05:44:17;;;;;;;10.97;6.43;;;;;;;22.48;68.20;101621.94;4967284;28;20487;-40
2022/08/28 05:46:47;;;;;;;11.40;6.23;;;;;;;22.58;61.86;101635.63;4992473;28;20955;-41
2022/08/28 05:49:16;;;;;;;8.57;6.07;;;;;;;23.10;65.24;101627.78;5008011;28;20432;-43
2022/08/28 05:51:44;;;;;;;10.30;6.30;;;;;;;23.50;61.77;101638.25;5011497;28;20985;-41
2022/08/28 05:54:13;;;;;;;11.40;5.70;;;;;;;24.11;63.65;101641.38;5010790;28;20802;-40
2022/08/28 05:56:43;;;;;;;8.60;5.77;;;;;;;24.05;51.62;101636.94;4982704;28;20482;-41
2022/08/28 05:59:12;;;;;;;10.17;5.50;;;;;;;24.60;58.30;101639.97;4973335;28;20430;-40
2022/08/28 06:01:42;;;;;;;6.63;5.97;;;;;;;25.00;53.65;101641.19;4973219;28;20550;-41
2022/08/28 06:04:13;;;;;;;10.17;5.90;;;;;;;25.49;54.46;101641.50;4973158;28;20445;-45
2022/08/28 06:06:42;;;;;;;9.00;6.50;;;;;;;25.92;55.70;101626.41;4992297;28;20441;-43
2022/08/28 06:09:12;;;;;;;9.90;6.37;;;;;;;26.01;49.60;101628.31;4992985;28;20818;-42
2022/08/28 06:11:41;;;;;;;13.53;5.87;;;;;;;26.26;50.50;101638.34;4993181;28;20448;-42
2022/08/28 06:14:14;;;;;;;11.87;5.57;;;;;;;26.41;48.19;101627.34;4992502;28;20433;-41
2022/08/28 06:16:47;;;;;;;9.57;5.00;;;;;;;26.69;50.33;101629.41;4992383;28;20477;-43
2022/08/28 06:19:16;;;;;;;9.77;5.00;;;;;;;26.93;49.62;101635.88;4991604;28;20437;-43
2022/08/28 06:21:45;;;;;;;7.17;5.13;;;;;;;26.88;49.00;101633.13;4992590;28;20468;-42
2022/08/28 06:24:13;;;;;;;8.27;4.80;;;;;;;26.98;47.73;101637.72;4992505;28;20438;-43
2022/08/28 06:26:41;;;;;;;9.07;5.57;;;;;;;27.36;44.58;101634.16;4992219;28;20437;-42
2022/08/28 06:29:11;;;;;;;5.60;4.80;;;;;;;27.50;47.05;101639.00;4992473;28;20444;-41
2022/08/28 06:31:39;;;;;;;9.90;5.57;;;;;;;27.52;45.65;101640.34;4992214;28;20460;-42
2022/08/28 06:34:09;;;;;;;8.70;5.30;;;;;;;27.71;42.87;101637.72;4991714;28;20942;-41
2022/08/28 06:36:39;;;;;;;13.00;5.63;;;;;;;27.89;45.29;101642.47;4972769;28;20486;-45
2022/08/28 06:39:08;;;;;;;7.80;5.00;;;;;;;27.89;43.15;101643.28;4972984;28;20438;-41
2022/08/28 06:41:39;;;;;;;9.90;5.47;;;;;;;28.03;44.61;101644.22;4973091;28;20218;-44
2022/08/28 06:44:08;;;;;;;13.77;5.70;;;;;;;26.87;42.71;101644.38;4972528;28;20470;-42
2022/08/28 06:46:35;;;;;;;10.27;5.30;;;;;;;27.10;45.39;101645.59;4972057;28;20473;-42
2022/08/28 06:49:07;;;;;;;11.43;6.43;;;;;;;27.27;42.92;101646.81;4972926;28;21040;-43
2022/08/28 06:51:36;;;;;;;7.97;5.10;;;;;;;27.22;45.44;101637.84;4973893;28;20891;-42
2022/08/28 06:54:05;;;;;;;8.53;4.47;;;;;;;27.79;45.68;101639.81;4984275;28;20452;-41
2022/08/28 06:56:33;;;;;;;6.17;5.00;;;;;;;27.55;44.09;101645.25;4991878;28;20485;-42
2022/08/28 06:59:01;;;;;;;8.00;4.40;;;;;;;27.30;46.35;101637.25;4992606;28;20436;-43
2022/08/28 07:01:31;;;;;;;6.83;4.93;;;;;;;27.24;45.10;101641.91;4991831;28;20468;-43
2022/08/28 07:04:03;;;;;;;8.40;5.73;;;;;;;26.58;41.54;101641.50;4992288;28;20616;-43
2022/08/28 07:06:33;;;;;;;8.43;5.27;;;;;;;26.01;44.22;101643.88;4995283;28;20838;-41
2022/08/28 07:09:04;;;;;;;8.80;6.07;;;;;;;25.49;45.33;101644.22;4995802;28;20426;-42
2022/08/28 07:11:33;;;;;;;7.27;5.77;;;;;;;25.35;45.65;101638.47;4996143;28;20457;-44
2022/08/28 07:14:02;;;;;;;7.43;5.57;;;;;;;24.91;46.39;101635.41;4994997;28;20927;-42
2022/08/28 07:16:32;;;;;;;10.57;5.90;;;;;;;24.71;48.02;101648.97;4995629;28;20471;-44
2022/08/28 07:19:02;;;;;;;8.20;6.13;;;;;;;24.47;49.26;101645.91;4995862;28;20437;-42
2022/08/28 07:21:30;;;;;;;8.77;5.97;;;;;;;23.87;50.04;101651.00;4995777;28;20464;-40
2022/08/28 07:23:58;;;;;;;8.50;6.70;;;;;;;23.24;52.41;101649.94;4995655;28;20440;-41
2022/08/28 07:26:27;;;;;;;7.60;6.70;;;;;;;23.26;51.62;101649.69;4995244;28;20468;-42
2022/08/28 07:28:56;;;;;;;7.57;6.40;;;;;;;22.70;54.14;101656.47;4995720;28;20437;-43
2022/08/28 07:31:40;;;;;;;11.73;7.10;;;;;;;22.13;55.92;101656.00;4995462;28;20990;-42
2022/08/28 07:34:09;;;;;;;16.20;7.50;;;;;;;22.23;57.33;101653.41;4995063;28;20938;-44
2022/08/28 07:36:37;;;;;;;12.87;6.47;;;;;;;21.91;58.29;101655.94;4986624;28;20501;-41
2022/08/28 07:39:06;;;;;;;7.13;6.13;;;;;;;21.55;59.11;101654.56;4974759;28;20778;-41
2022/08/28 07:41:39;;;;;;;10.70;6.43;;;;;;;21.13;62.45;101661.41;4975476;28;20462;-42
2022/08/28 07:46:53;;;;;;;8.87;6.50;;;;;;;20.68;67.30;101654.03;4981710;28;20893;-45
2022/08/28 07:49:22;;;;;;;11.47;7.33;;;;;;;20.35;66.53;101651.19;5002572;28;20441;-42
2022/08/28 07:51:50;;;;;;;10.70;7.70;;;;;;;20.33;67.47;101664.16;5005365;28;20464;-41
2022/08/28 07:54:21;;;;;;;9.90;7.07;;;;;;;20.14;68.42;101668.03;5012703;28;20463;-43
2022/08/28 07:56:51;;;;;;;14.90;8.10;;;;;;;20.04;67.87;101665.09;4995039;28;20484;-42
2022/08/28 07:59:19;;;;;;;10.63;7.13;;;;;;;20.02;70.17;101667.22;4995853;28;20430;-43
2022/08/28 08:01:50;;;;;;;10.30;7.90;;;;;;;19.95;71.95;101670.03;4994623;28;20470;-43
2022/08/28 08:04:20;;;;;;;14.23;7.27;;;;;;;19.72;68.69;101670.84;4994533;28;20500;-42
2022/08/28 08:06:49;;;;;;;10.70;6.40;;;;;;;19.70;71.57;101672.16;5014480;28;20436;-45
2022/08/28 08:09:23;;;;;;;11.27;6.10;;;;;;;19.48;70.20;101666.47;5014365;28;20436;-42
2022/08/28 08:11:53;;;;;;;11.17;7.93;;;;;;;19.75;70.38;101672.28;5014366;28;20970;-41
2022/08/28 08:14:21;;;;;;;9.73;5.80;;;;;;;20.03;68.15;101664.28;5012443;28;20922;-42
2022/08/28 08:16:50;;;;;;;8.97;5.80;;;;;;;20.42;68.31;101676.28;4994517;28;20460;-41
2022/08/28 08:19:19;;;;;;;14.23;6.60;;;;;;;20.49;67.61;101671.53;4984326;28;20427;-40
2022/08/28 08:21:49;;;;;;;10.37;6.07;;;;;;;20.41;65.88;101675.44;4974918;28;20450;-41
2022/08/28 08:24:24;;;;;;;15.20;6.83;;;;;;;20.02;68.34;101665.34;4974271;28;20508;-43
2022/08/28 08:26:56;;;;;;;10.03;6.03;;;;;;;20.27;68.49;101667.81;4974943;28;20461;-43
2022/08/28 08:29:28;;;;;;;8.77;5.93;;;;;;;20.07;68.04;101678.19;4975010;28;20430;-43
2022/08/28 08:31:57;;;;;;;9.60;5.50;;;;;;;20.15;65.77;101678.63;4974155;28;20449;-40
2022/08/28 08:34:25;;;;;;;16.27;7.00;;;;;;;20.26;65.69;101680.53;4974172;28;20434;-41
2022/08/28 08:36:53;;;;;;;8.67;5.60;;;;;;;20.08;65.53;101680.63;4974612;28;20434;-42
2022/08/28 08:39:20;;;;;;;14.57;7.40;;;;;;;19.88;66.65;101691.00;4974701;28;20485;-40
2022/08/28 08:41:51;;;;;;;10.37;6.17;;;;;;;19.76;68.84;101698.28;4974759;28;20455;-42
2022/08/28 08:44:25;;;;;;;11.93;6.93;;;;;;;20.31;68.90;101694.16;4973917;28;20932;-40
2022/08/28 08:47:07;;;;;;;8.27;6.63;;;;;;;20.97;66.96;101690.09;4973887;28;20456;-42
2022/08/28 08:49:47;;;;;;;12.90;6.40;;;;;;;21.21;62.67;101690.84;4974590;28;20446;-43
2022/08/28 08:52:29;;;;;;;6.73;5.00;;;;;;;21.10;62.87;101694.44;4982037;28;20450;-40
2022/08/28 08:55:21;;;;;;;10.10;5.63;;;;;;;20.66;61.93;101690.59;4988400;28;20467;-42
2022/08/28 08:57:58;;;;;;;12.67;6.77;;;;;;;20.29;65.73;101698.19;4993584;28;20975;-41
2022/08/28 09:00:28;;;;;;;14.30;6.87;;;;;;;20.01;65.60;101695.38;4993656;28;20499;-40
2022/08/28 09:03:04;;;;;;;9.77;5.60;;;;;;;19.89;68.58;101688.03;4993164;28;20438;-46
2022/08/28 09:05:47;;;;;;;8.50;5.07;;;;;;;20.36;65.47;101688.06;4993969;28;20465;-45
2022/08/28 09:08:31;;;;;;;9.60;5.93;;;;;;;20.88;61.81;101686.13;4993811;28;20434;-42
2022/08/28 09:11:04;;;;;;;9.37;6.23;;;;;;;21.04;63.36;101679.13;4993442;28;20468;-41
2022/08/28 09:13:48;;;;;;;9.20;6.20;;;;;;;21.09;61.59;101679.22;4993321;28;20438;-41
2022/08/28 09:16:24;;;;;;;11.20;6.47;;;;;;;21.28;62.92;101686.09;4992650;28;20465;-42
2022/08/28 09:18:54;;;;;;;10.07;6.30;;;;;;;21.62;59.51;101676.09;4993435;28;20504;-43
2022/08/28 09:21:27;;;;;;;9.73;5.77;;;;;;;21.71;57.18;101674.63;4993317;28;20459;-42
2022/08/28 09:24:00;;;;;;;8.20;5.90;;;;;;;21.38;57.06;101681.69;4993160;28;20496;-41
2022/08/28 09:26:32;;;;;;;10.00;5.97;;;;;;;21.62;58.45;101665.25;4992766;28;20467;-42
2022/08/28 09:29:03;;;;;;;7.13;5.27;;;;;;;21.50;58.07;101668.03;4993037;28;20468;-43
2022/08/28 09:31:35;;;;;;;9.53;5.00;;;;;;;21.70;58.32;101672.97;4993006;28;20457;-42
2022/08/28 09:34:26;;;;;;;6.23;5.63;;;;;;;21.42;60.38;101673.84;4993036;28;20433;-40
2022/08/28 09:36:55;;;;;;;6.67;4.83;;;;;;;21.35;60.30;101674.03;4992956;28;20442;-41
2022/08/28 09:39:25;;;;;;;12.30;5.10;;;;;;;21.45;62.62;101685.06;4992870;28;20967;-41
2022/08/28 09:44:51;;;;;;;9.27;5.93;;;;;;;20.83;65.95;101667.06;4992109;28;21433;-40
2022/08/28 09:47:44;;;;;;;6.37;5.00;;;;;;;20.68;67.08;101674.91;4992887;28;20852;-41
2022/08/28 09:50:35;;;;;;;11.17;6.03;;;;;;;20.35;68.05;101679.09;4993038;28;20777;-41
2022/08/28 09:53:19;;;;;;;7.43;5.13;;;;;;;20.71;67.92;101669.00;4986143;28;20445;-42
2022/08/28 09:55:55;;;;;;;8.60;6.23;;;;;;;21.13;66.37;101667.66;4953197;28;20470;-42
2022/08/28 09:58:36;;;;;;;17.53;6.97;;;;;;;21.58;63.85;101666.78;4953901;29;20478;-43
2022/08/28 10:01:40;;;;;;;10.37;5.87;;;;;;;22.39;60.10;101666.13;4953368;29;20467;-42
2022/08/28 10:04:29;;;;;;;12.70;5.87;;;;;;;22.66;56.56;101663.50;4931474;28;20436;-42
2022/08/28 10:07:03;;;;;;;11.17;6.07;;;;;;;22.45;56.48;101668.66;4973383;28;20509;-42
2022/08/28 10:09:41;;;;;;;8.20;5.57;;;;;;;21.86;62.54;101662.09;4973131;28;20437;-41
2022/08/28 10:12:28;;;;;;;9.67;5.60;;;;;;;21.48;63.37;101671.00;4972757;28;20451;-42
2022/08/28 10:15:03;;;;;;;13.33;5.80;;;;;;;21.83;60.51;101664.50;4972535;28;20926;-42
2022/08/28 10:17:39;;;;;;;10.93;6.40;;;;;;;22.35;60.69;101665.78;4973416;28;20430;-43
2022/08/28 10:20:16;;;;;;;11.60;6.03;;;;;;;23.41;58.95;101656.13;4972992;28;21128;-41
2022/08/28 10:22:52;;;;;;;8.20;5.00;;;;;;;23.55;56.11;101657.34;4972784;28;20450;-43
2022/08/28 10:25:31;;;;;;;10.80;5.03;;;;;;;22.71;57.09;101666.25;4972758;28;20842;-43
2022/08/28 10:28:19;;;;;;;12.23;5.90;;;;;;;22.00;59.59;101668.03;4972795;28;21117;-43
2022/08/28 10:30:56;;;;;;;9.30;5.40;;;;;;;21.66;61.49;101660.94;4964665;28;20545;-42
2022/08/28 10:33:38;;;;;;;9.57;5.17;;;;;;;21.52;60.99;101668.63;4972578;28;20430;-45
2022/08/28 10:36:15;;;;;;;15.43;6.27;;;;;;;21.80;61.06;101663.06;4972775;28;20485;-43
2022/08/28 10:39:11;;;;;;;11.10;5.97;;;;;;;22.62;59.80;101663.13;4972777;28;20548;-44
2022/08/28 10:41:44;;;;;;;10.00;5.90;;;;;;;22.46;58.99;101664.03;4976751;28;20470;-43
2022/08/28 10:44:17;;;;;;;11.60;6.50;;;;;;;22.42;58.56;101666.44;4976775;28;20441;-42
2022/08/28 10:46:50;;;;;;;12.57;5.40;;;;;;;21.95;61.30;101676.91;4957455;29;20447;-42
2022/08/28 10:49:25;;;;;;;11.37;6.00;;;;;;;22.65;62.06;101667.28;4957532;29;20463;-41
2022/08/28 10:51:59;;;;;;;15.00;7.10;;;;;;;23.04;58.63;101669.63;4969207;28;20453;-42
2022/08/28 10:54:37;;;;;;;14.50;6.30;;;;;;;22.65;60.30;101661.84;4995486;28;20425;-42
2022/08/28 10:57:09;;;;;;;6.73;5.53;;;;;;;22.40;57.07;101660.41;4996156;28;20803;-43
2022/08/28 10:59:38;;;;;;;10.43;6.10;;;;;;;21.99;59.40;101669.09;4996358;28;20560;-43
2022/08/28 11:02:12;;;;;;;10.07;6.23;;;;;;;21.86;60.07;101667.50;4995786;28;20515;-42
2022/08/28 11:04:40;;;;;;;10.90;5.87;;;;;;;22.04;61.46;101669.19;4997059;28;20538;-40
2022/08/28 11:07:13;;;;;;;8.57;4.87;;;;;;;22.72;58.85;101666.03;4997769;28;20437;-40
2022/08/28 11:09:46;;;;;;;12.37;5.60;;;;;;;23.09;57.97;101666.94;4996171;28;20524;-43
2022/08/28 11:12:34;;;;;;;10.23;5.70;;;;;;;23.53;53.75;101658.69;4994662;28;20456;-44
2022/08/28 11:15:37;;;;;;;9.23;6.67;;;;;;;23.01;57.26;101672.03;4995168;28;20826;-42
2022/08/28 11:18:37;;;;;;;9.20;6.37;;;;;;;22.55;56.99;101674.19;4995956;28;20929;-40
2022/08/28 11:21:12;;;;;;;9.27;5.70;;;;;;;22.40;60.03;101667.78;4995582;28;20453;-41
2022/08/28 11:23:47;;;;;;;12.47;5.70;;;;;;;22.95;59.53;101664.91;4995381;28;20429;-42
2022/08/28 11:26:28;;;;;;;6.80;5.67;;;;;;;23.57;56.71;101665.22;4995133;28;20535;-42
2022/08/28 11:28:56;;;;;;;14.00;6.20;;;;;;;24.02;55.54;101664.72;4995591;28;20429;-44
2022/08/28 11:31:39;;;;;;;11.30;5.53;;;;;;;24.69;53.75;101670.25;4995452;28;20997;-42
2022/08/28 11:34:07;;;;;;;11.30;5.83;;;;;;;24.89;52.28;101672.25;4995214;28;20513;-41
2022/08/28 11:37:00;;;;;;;6.00;5.20;;;;;;;25.23;50.74;101667.97;4994823;28;20469;-43
2022/08/28 11:39:29;;;;;;;8.00;5.77;;;;;;;25.37;51.15;101665.50;4995525;28;20552;-41
2022/08/28 11:42:30;;;;;;;11.83;5.70;;;;;;;25.37;49.82;101666.31;4994646;28;20460;-42
2022/08/28 11:44:59;;;;;;;11.67;6.67;;;;;;;25.54;50.23;101669.63;4994919;28;20978;-43
2022/08/28 11:47:55;;;;;;;10.67;4.83;;;;;;;25.81;49.75;101669.31;4995217;28;20437;-42